createdAt,value
2023-04-28T00:00:07.845Z,8.01
2023-04-28T00:01:07.828Z,7.90
2023-04-28T00:02:07.822Z,7.88
2023-04-28T00:03:07.873Z,7.92
2023-04-28T00:04:08.006Z,7.86
2023-04-28T00:05:07.861Z,7.51
2023-04-28T00:06:07.792Z,7.51
2023-04-28T00:07:07.790Z,7.35
2023-04-28T00:08:07.782Z,7.22
2023-04-28T00:09:07.768Z,7.46
2023-04-28T00:10:07.777Z,7.57
2023-04-28T00:11:07.779Z,7.45
2023-04-28T00:12:07.765Z,7.56
2023-04-28T00:13:07.775Z,7.63
2023-04-28T00:14:07.777Z,7.60
2023-04-28T00:15:07.772Z,7.57
2023-04-28T00:16:07.850Z,7.63
2023-04-28T00:17:07.798Z,7.26
2023-04-28T00:18:07.770Z,7.04
2023-04-28T00:19:07.767Z,6.93
2023-04-28T00:20:07.746Z,6.88
2023-04-28T00:21:07.742Z,6.54
2023-04-28T00:22:07.753Z,6.43
2023-04-28T00:23:07.736Z,6.10
2023-04-28T00:24:07.745Z,5.78
2023-04-28T00:25:07.759Z,5.80
2023-04-28T00:26:07.721Z,6.03
2023-04-28T00:27:07.754Z,6.28
2023-04-28T00:28:07.713Z,6.33
2023-04-28T00:29:07.706Z,6.22
2023-04-28T00:30:07.724Z,6.18
2023-04-28T00:31:07.715Z,5.83
2023-04-28T00:32:07.749Z,6.08
2023-04-28T00:33:07.724Z,6.04
2023-04-28T00:34:07.730Z,5.97
2023-04-28T00:35:07.705Z,5.93
2023-04-28T00:36:07.720Z,5.94
2023-04-28T00:37:07.708Z,5.87
2023-04-28T00:38:07.703Z,5.83
2023-04-28T00:39:07.713Z,6.16
2023-04-28T00:40:07.732Z,6.24
2023-04-28T00:41:07.709Z,6.48
2023-04-28T00:42:07.710Z,6.57
2023-04-28T00:43:07.698Z,6.49
2023-04-28T00:44:07.710Z,6.71
2023-04-28T00:45:07.726Z,6.62
2023-04-28T00:46:07.738Z,7.03
2023-04-28T00:47:07.708Z,7.10
2023-04-28T00:48:07.845Z,7.54
2023-04-28T00:49:07.694Z,7.75
2023-04-28T00:50:07.719Z,7.82
2023-04-28T00:51:07.705Z,8.18
2023-04-28T00:52:07.688Z,8.21
2023-04-28T00:53:07.668Z,8.17
2023-04-28T00:54:07.682Z,8.18
2023-04-28T00:55:07.690Z,8.07
2023-04-28T00:56:07.686Z,7.73
2023-04-28T00:57:07.673Z,7.42
2023-04-28T00:58:07.663Z,7.65
2023-04-28T00:59:07.655Z,8.06
2023-04-28T01:00:07.675Z,8.60
2023-04-28T01:01:07.743Z,8.65
2023-04-28T01:02:07.795Z,8.71
2023-04-28T01:03:07.828Z,8.43
2023-04-28T01:04:08.133Z,8.54
2023-04-28T01:05:07.659Z,8.32
2023-04-28T01:06:07.648Z,8.53
2023-04-28T01:07:07.655Z,8.55
2023-04-28T01:08:07.651Z,8.45
2023-04-28T01:09:07.721Z,8.35
2023-04-28T01:10:07.634Z,8.10
2023-04-28T01:11:07.648Z,8.20
2023-04-28T01:12:07.645Z,8.60
2023-04-28T01:13:07.640Z,9.06
2023-04-28T01:14:07.655Z,9.64
2023-04-28T01:15:07.662Z,9.72
2023-04-28T01:16:07.706Z,10.03
2023-04-28T01:17:07.635Z,10.68
2023-04-28T01:18:07.651Z,11.22
2023-04-28T01:19:07.620Z,11.30
2023-04-28T01:20:07.622Z,11.28
2023-04-28T01:21:07.648Z,11.53
2023-04-28T01:22:07.640Z,11.53
2023-04-28T01:23:07.626Z,11.33
2023-04-28T01:24:07.633Z,11.12
2023-04-28T01:25:07.599Z,10.68
2023-04-28T01:26:07.618Z,10.14
2023-04-28T01:27:07.621Z,9.79
2023-04-28T01:28:07.615Z,9.96
2023-04-28T01:29:07.617Z,10.14
2023-04-28T01:30:07.593Z,9.98
2023-04-28T01:31:07.629Z,9.96
2023-04-28T01:32:07.580Z,9.99
2023-04-28T01:33:07.704Z,9.72
2023-04-28T01:34:07.573Z,9.61
2023-04-28T01:35:07.576Z,8.94
2023-04-28T01:36:07.595Z,8.74
2023-04-28T01:37:07.582Z,8.38
2023-04-28T01:38:07.563Z,8.31
2023-04-28T01:39:07.558Z,7.24
2023-04-28T01:40:07.548Z,6.94
2023-04-28T01:41:07.555Z,6.54
2023-04-28T01:42:07.545Z,6.70
2023-04-28T01:43:07.539Z,6.99
2023-04-28T01:44:07.541Z,6.91
2023-04-28T01:45:07.532Z,6.96
2023-04-28T01:46:07.580Z,7.10
2023-04-28T01:47:07.526Z,7.08
2023-04-28T01:48:07.559Z,7.32
2023-04-28T01:49:07.522Z,7.26
2023-04-28T01:50:07.505Z,7.62
2023-04-28T01:51:07.519Z,8.05
2023-04-28T01:52:07.540Z,7.81
2023-04-28T01:53:07.519Z,8.11
2023-04-28T01:54:07.519Z,8.40
2023-04-28T01:55:07.517Z,8.68
2023-04-28T01:56:07.515Z,8.75
2023-04-28T01:57:07.517Z,8.91
2023-04-28T01:58:07.526Z,9.25
2023-04-28T01:59:07.499Z,9.41
2023-04-28T02:00:07.493Z,9.33
2023-04-28T02:01:07.534Z,9.70
2023-04-28T02:02:07.510Z,10.28
2023-04-28T02:03:07.743Z,11.52
2023-04-28T02:04:07.583Z,12.61
2023-04-28T02:05:07.519Z,12.87
2023-04-28T02:06:07.503Z,13.65
2023-04-28T02:07:07.499Z,13.55
2023-04-28T02:08:07.506Z,13.27
2023-04-28T02:09:07.491Z,12.62
2023-04-28T02:10:07.535Z,12.00
2023-04-28T02:11:07.531Z,11.39
2023-04-28T02:12:07.516Z,10.31
2023-04-28T02:13:07.508Z,9.92
2023-04-28T02:14:07.489Z,9.62
2023-04-28T02:15:07.483Z,9.85
2023-04-28T02:16:07.592Z,9.16
2023-04-28T02:17:07.499Z,8.76
2023-04-28T02:18:07.583Z,8.85
2023-04-28T02:19:07.488Z,9.18
2023-04-28T02:20:07.481Z,9.22
2023-04-28T02:21:07.497Z,9.18
2023-04-28T02:22:07.492Z,9.46
2023-04-28T02:23:07.471Z,9.43
2023-04-28T02:24:07.495Z,9.70
2023-04-28T02:25:07.482Z,9.75
2023-04-28T02:26:07.484Z,9.95
2023-04-28T02:27:07.479Z,9.80
2023-04-28T02:28:07.483Z,9.77
2023-04-28T02:29:07.492Z,10.01
2023-04-28T02:30:07.464Z,10.00
2023-04-28T02:31:07.627Z,10.49
2023-04-28T02:32:07.482Z,10.11
2023-04-28T02:33:07.516Z,10.15
2023-04-28T02:34:07.483Z,10.39
2023-04-28T02:35:07.482Z,9.97
2023-04-28T02:36:07.473Z,9.64
2023-04-28T02:37:07.484Z,9.94
2023-04-28T02:38:07.482Z,10.02
2023-04-28T02:39:07.481Z,10.13
2023-04-28T02:40:07.477Z,9.94
2023-04-28T02:41:07.482Z,10.08
2023-04-28T02:42:07.463Z,9.99
2023-04-28T02:43:07.460Z,10.21
2023-04-28T02:44:07.449Z,10.33
2023-04-28T02:45:07.479Z,10.51
2023-04-28T02:46:07.467Z,10.22
2023-04-28T02:47:07.557Z,10.58
2023-04-28T02:48:07.457Z,10.56
2023-04-28T02:49:07.442Z,10.67
2023-04-28T02:50:07.436Z,10.76
2023-04-28T02:51:07.440Z,10.70
2023-04-28T02:52:07.438Z,11.03
2023-04-28T02:53:07.469Z,10.90
2023-04-28T02:54:07.459Z,11.15
2023-04-28T02:55:07.458Z,11.16
2023-04-28T02:56:07.466Z,10.88
2023-04-28T02:57:07.457Z,10.74
2023-04-28T02:58:07.471Z,10.37
2023-04-28T02:59:07.465Z,10.48
2023-04-28T03:00:07.462Z,10.23
2023-04-28T03:01:07.500Z,10.15
2023-04-28T03:02:07.461Z,9.70
2023-04-28T03:03:07.584Z,9.82
2023-04-28T03:04:07.757Z,9.75
2023-04-28T03:05:07.473Z,10.19
2023-04-28T03:06:07.460Z,10.35
2023-04-28T03:07:07.467Z,10.02
2023-04-28T03:08:07.463Z,10.41
2023-04-28T03:09:07.490Z,10.10
2023-04-28T03:10:07.469Z,10.16
2023-04-28T03:11:07.495Z,10.29
2023-04-28T03:12:07.467Z,10.47
2023-04-28T03:13:07.466Z,10.64
2023-04-28T03:14:07.472Z,10.49
2023-04-28T03:15:07.484Z,10.52
2023-04-28T03:16:07.504Z,10.75
2023-04-28T03:17:07.475Z,10.84
2023-04-28T03:18:07.555Z,10.75
2023-04-28T03:19:07.473Z,10.85
2023-04-28T03:20:07.457Z,11.03
2023-04-28T03:21:07.495Z,10.94
2023-04-28T03:22:07.462Z,11.23
2023-04-28T03:23:07.476Z,11.09
2023-04-28T03:24:07.457Z,11.04
2023-04-28T03:25:07.462Z,10.56
2023-04-28T03:26:07.436Z,10.08
2023-04-28T03:27:07.427Z,10.11
2023-04-28T03:28:07.431Z,9.95
2023-04-28T03:29:07.435Z,10.56
2023-04-28T03:30:07.433Z,10.94
2023-04-28T03:31:07.440Z,11.00
2023-04-28T03:32:07.448Z,10.94
2023-04-28T03:33:07.485Z,10.92
2023-04-28T03:34:07.430Z,10.91
2023-04-28T03:35:07.436Z,10.64
2023-04-28T03:36:07.413Z,10.76
2023-04-28T03:37:07.408Z,10.24
2023-04-28T03:38:07.432Z,10.07
2023-04-28T03:39:07.430Z,9.65
2023-04-28T03:40:07.428Z,9.32
2023-04-28T03:41:07.419Z,9.32
2023-04-28T03:42:07.416Z,9.64
2023-04-28T03:43:07.429Z,9.39
2023-04-28T03:44:07.408Z,9.21
2023-04-28T03:45:07.416Z,9.31
2023-04-28T03:46:07.489Z,9.58
2023-04-28T03:47:07.432Z,10.01
2023-04-28T03:48:07.477Z,9.95
2023-04-28T03:49:07.397Z,9.86
2023-04-28T03:50:07.398Z,9.86
2023-04-28T03:51:07.391Z,10.21
2023-04-28T03:52:07.378Z,10.04
2023-04-28T03:53:07.389Z,10.55
2023-04-28T03:54:07.379Z,10.35
2023-04-28T03:55:07.373Z,10.48
2023-04-28T03:56:07.424Z,10.42
2023-04-28T03:57:07.376Z,10.95
2023-04-28T03:58:07.396Z,10.91
2023-04-28T03:59:07.375Z,10.51
2023-04-28T04:00:07.366Z,10.52
2023-04-28T04:01:07.362Z,10.36
2023-04-28T04:02:07.380Z,10.40
2023-04-28T04:03:07.434Z,10.53
2023-04-28T04:04:07.480Z,10.40
2023-04-28T04:05:07.467Z,10.30
2023-04-28T04:06:07.349Z,10.21
2023-04-28T04:07:07.357Z,10.19
2023-04-28T04:08:07.346Z,10.14
2023-04-28T04:09:07.341Z,10.10
2023-04-28T04:10:07.333Z,9.96
2023-04-28T04:11:07.331Z,10.13
2023-04-28T04:12:07.333Z,10.15
2023-04-28T04:13:07.325Z,10.46
2023-04-28T04:14:07.358Z,10.55
2023-04-28T04:15:07.320Z,10.77
2023-04-28T04:16:07.357Z,11.11
2023-04-28T04:17:07.332Z,11.44
2023-04-28T04:18:07.365Z,11.67
2023-04-28T04:19:07.311Z,11.77
2023-04-28T04:20:07.301Z,12.00
2023-04-28T04:21:07.287Z,11.94
2023-04-28T04:22:07.303Z,12.00
2023-04-28T04:23:07.276Z,12.55
2023-04-28T04:24:07.280Z,12.63
2023-04-28T04:25:07.326Z,13.30
2023-04-28T04:26:07.289Z,13.47
2023-04-28T04:27:07.286Z,13.52
2023-04-28T04:28:07.314Z,13.61
2023-04-28T04:29:07.265Z,13.76
2023-04-28T04:30:07.275Z,13.90
2023-04-28T04:31:07.321Z,14.21
2023-04-28T04:32:07.283Z,14.23
2023-04-28T04:33:07.284Z,14.37
2023-04-28T04:34:07.237Z,14.52
2023-04-28T04:35:07.244Z,14.16
2023-04-28T04:36:07.230Z,14.16
2023-04-28T04:37:07.263Z,14.24
2023-04-28T04:38:07.215Z,13.67
2023-04-28T04:39:07.208Z,13.48
2023-04-28T04:40:07.225Z,13.10
2023-04-28T04:41:07.232Z,12.78
2023-04-28T04:42:17.159Z,12.56
2023-04-28T04:43:08.215Z,12.57
2023-04-28T04:44:07.210Z,12.50
2023-04-28T04:45:07.188Z,12.08
2023-04-28T04:46:07.210Z,11.65
2023-04-28T04:47:07.176Z,11.59
2023-04-28T04:48:07.204Z,11.22
2023-04-28T04:49:07.177Z,11.26
2023-04-28T04:50:07.189Z,11.55
2023-04-28T04:51:07.194Z,11.77
2023-04-28T04:52:07.143Z,11.69
2023-04-28T04:53:09.955Z,11.61
2023-04-28T04:54:08.142Z,11.65
2023-04-28T04:55:07.146Z,11.79
2023-04-28T04:56:07.156Z,12.11
2023-04-28T04:57:07.124Z,12.98
2023-04-28T04:58:07.129Z,13.95
2023-04-28T04:59:07.108Z,14.29
2023-04-28T05:00:07.088Z,14.21
2023-04-28T05:01:07.104Z,14.65
2023-04-28T05:02:07.123Z,14.73
2023-04-28T05:03:07.232Z,14.89
2023-04-28T05:04:07.399Z,15.68
2023-04-28T05:05:19.579Z,15.47
2023-04-28T05:06:08.064Z,15.52
2023-04-28T05:07:07.052Z,15.66
2023-04-28T05:08:07.050Z,16.13
2023-04-28T05:09:07.049Z,16.69
2023-04-28T05:10:07.033Z,17.73
2023-04-28T05:11:07.057Z,17.67
2023-04-28T05:12:07.042Z,17.29
2023-04-28T05:13:07.031Z,17.16
2023-04-28T05:14:07.003Z,17.28
2023-04-28T05:15:07.013Z,16.86
2023-04-28T05:16:07.044Z,16.96
2023-04-28T05:17:07.006Z,16.59
2023-04-28T05:18:07.062Z,16.18
2023-04-28T05:19:06.975Z,16.04
2023-04-28T05:20:06.976Z,15.54
2023-04-28T05:21:06.960Z,15.34
2023-04-28T05:22:06.951Z,15.68
2023-04-28T05:23:06.963Z,16.11
2023-04-28T05:24:06.967Z,16.29
2023-04-28T05:25:06.932Z,16.50
2023-04-28T05:26:06.927Z,16.48
2023-04-28T05:27:06.934Z,17.13
2023-04-28T05:28:06.931Z,17.64
2023-04-28T05:29:06.915Z,17.51
2023-04-28T05:30:06.909Z,18.88
2023-04-28T05:31:06.921Z,18.21
2023-04-28T05:32:06.957Z,20.11
2023-04-28T05:33:06.891Z,19.96
2023-04-28T05:34:06.915Z,19.92
2023-04-28T05:35:06.873Z,19.18
2023-04-28T05:36:06.878Z,19.94
2023-04-28T05:37:06.856Z,20.88
2023-04-28T05:38:06.854Z,21.73
2023-04-28T05:39:06.921Z,21.65
2023-04-28T05:40:06.956Z,22.40
2023-04-28T05:41:07.035Z,20.71
2023-04-28T05:42:07.086Z,22.21
2023-04-28T05:43:07.166Z,22.61
2023-04-28T05:44:07.228Z,22.65
2023-04-28T05:45:07.284Z,23.70
2023-04-28T05:46:18.276Z,24.53
2023-04-28T05:47:08.322Z,24.62
2023-04-28T05:48:07.362Z,24.67
2023-04-28T05:49:07.335Z,25.15
2023-04-28T05:50:07.300Z,25.81
2023-04-28T05:51:07.285Z,26.83
2023-04-28T05:52:07.283Z,26.87
2023-04-28T05:53:07.278Z,27.06
2023-04-28T05:54:07.275Z,27.39
2023-04-28T05:55:07.271Z,26.04
2023-04-28T05:56:07.263Z,26.89
2023-04-28T05:57:07.277Z,27.19
2023-04-28T05:58:07.256Z,26.71
2023-04-28T05:59:07.226Z,29.07
2023-04-28T06:00:07.231Z,30.83
2023-04-28T06:01:07.264Z,33.91
2023-04-28T06:02:07.348Z,37.05
2023-04-28T06:03:07.452Z,42.34
2023-04-28T06:04:07.722Z,48.98
2023-04-28T06:05:07.717Z,41.13
2023-04-28T06:06:09.955Z,39.09
2023-04-28T06:07:07.783Z,39.59
2023-04-28T06:08:07.345Z,41.55
2023-04-28T06:09:07.377Z,40.99
2023-04-28T06:10:07.335Z,40.19
2023-04-28T06:11:07.349Z,41.43
2023-04-28T06:12:07.403Z,39.79
2023-04-28T06:13:07.365Z,42.02
2023-04-28T06:14:07.365Z,42.75
2023-04-28T06:15:07.329Z,44.57
2023-04-28T06:16:07.409Z,44.62
2023-04-28T06:17:07.316Z,42.17
2023-04-28T06:18:07.805Z,35.05
2023-04-28T06:19:07.277Z,37.61
2023-04-28T06:20:07.281Z,38.49
2023-04-28T06:21:07.266Z,38.64
2023-04-28T06:22:07.296Z,41.58
2023-04-28T06:23:07.279Z,41.40
2023-04-28T06:24:07.274Z,41.25
2023-04-28T06:25:07.256Z,40.81
2023-04-28T06:26:07.233Z,32.56
2023-04-28T06:27:07.259Z,27.02
2023-04-28T06:28:07.221Z,25.14
2023-04-28T06:29:07.228Z,26.17
2023-04-28T06:30:07.242Z,28.24
2023-04-28T06:31:07.257Z,25.65
2023-04-28T06:32:07.309Z,22.23
2023-04-28T06:33:07.214Z,18.60
2023-04-28T06:34:07.232Z,21.24
2023-04-28T06:35:07.197Z,24.98
2023-04-28T06:36:07.177Z,25.96
2023-04-28T06:37:07.246Z,25.01
2023-04-28T06:38:07.183Z,21.50
2023-04-28T06:39:07.223Z,20.07
2023-04-28T06:40:07.170Z,19.71
2023-04-28T06:41:07.145Z,18.48
2023-04-28T06:42:07.180Z,17.68
2023-04-28T06:43:07.130Z,17.31
2023-04-28T06:44:07.111Z,15.12
2023-04-28T06:45:07.106Z,14.94
2023-04-28T06:46:07.113Z,14.49
2023-04-28T06:47:07.225Z,17.05
2023-04-28T06:48:07.283Z,19.66
2023-04-28T06:49:07.122Z,23.13
2023-04-28T06:50:07.102Z,23.97
2023-04-28T06:51:07.091Z,24.80
2023-04-28T06:52:07.080Z,25.02
2023-04-28T06:53:07.253Z,27.04
2023-04-28T06:54:07.054Z,29.05
2023-04-28T06:55:07.050Z,29.98
2023-04-28T06:56:07.812Z,30.09
2023-04-28T06:57:07.260Z,29.56
2023-04-28T06:58:07.267Z,30.04
2023-04-28T06:59:07.043Z,31.39
2023-04-28T07:00:07.031Z,33.45
2023-04-28T07:01:07.049Z,32.45
2023-04-28T07:02:07.040Z,31.02
2023-04-28T07:03:07.201Z,34.33
2023-04-28T07:04:07.428Z,36.58
2023-04-28T07:05:07.107Z,39.01
2023-04-28T07:06:07.116Z,39.10
2023-04-28T07:07:07.143Z,39.66
2023-04-28T07:08:07.262Z,40.58
2023-04-28T07:09:07.133Z,40.49
2023-04-28T07:10:07.176Z,38.30
2023-04-28T07:11:07.132Z,37.84
2023-04-28T07:12:07.160Z,39.27
2023-04-28T07:13:07.163Z,41.03
2023-04-28T07:14:07.159Z,42.30
2023-04-28T07:15:07.713Z,42.92
2023-04-28T07:16:07.201Z,43.91
2023-04-28T07:17:07.154Z,42.02
2023-04-28T07:18:07.312Z,43.48
2023-04-28T07:19:07.167Z,45.00
2023-04-28T07:20:07.147Z,45.16
2023-04-28T07:21:07.145Z,46.54
2023-04-28T07:22:07.169Z,45.77
2023-04-28T07:23:07.166Z,46.63
2023-04-28T07:24:07.165Z,40.73
2023-04-28T07:25:07.171Z,38.04
2023-04-28T07:26:07.268Z,34.08
2023-04-28T07:27:07.241Z,33.81
2023-04-28T07:28:07.184Z,33.21
2023-04-28T07:29:07.229Z,33.44
2023-04-28T07:30:19.287Z,32.98
2023-04-28T07:31:08.322Z,33.16
2023-04-28T07:32:07.667Z,33.39
2023-04-28T07:33:07.350Z,32.17
2023-04-28T07:34:07.191Z,31.67
2023-04-28T07:35:07.201Z,34.37
2023-04-28T07:36:07.202Z,36.61
2023-04-28T07:37:07.289Z,39.01
2023-04-28T07:38:07.213Z,40.12
2023-04-28T07:39:07.169Z,41.94
2023-04-28T07:40:07.192Z,43.60
2023-04-28T07:41:08.839Z,44.19
2023-04-28T07:42:07.280Z,44.26
2023-04-28T07:43:07.176Z,42.84
2023-04-28T07:44:07.163Z,39.00
2023-04-28T07:45:07.127Z,38.24
2023-04-28T07:46:07.187Z,39.43
2023-04-28T07:47:07.174Z,41.47
2023-04-28T07:48:07.158Z,43.13
2023-04-28T07:49:07.141Z,43.82
2023-04-28T07:50:07.117Z,42.97
2023-04-28T07:51:07.126Z,44.52
2023-04-28T07:52:07.282Z,44.71
2023-04-28T07:53:07.274Z,44.62
2023-04-28T07:54:07.076Z,44.16
2023-04-28T07:55:07.112Z,45.17
2023-04-28T07:56:07.076Z,45.58
2023-04-28T07:57:07.119Z,45.55
2023-04-28T07:58:07.065Z,44.46
2023-04-28T07:59:07.092Z,44.70
2023-04-28T08:00:07.029Z,44.15
2023-04-28T08:01:07.044Z,44.18
2023-04-28T08:02:07.311Z,44.07
2023-04-28T08:03:07.192Z,44.70
2023-04-28T08:04:07.323Z,43.59
2023-04-28T08:05:07.160Z,42.12
2023-04-28T08:06:07.353Z,41.87
2023-04-28T08:07:07.270Z,42.33
2023-04-28T08:08:07.343Z,42.12
2023-04-28T08:09:07.005Z,42.49
2023-04-28T08:10:07.015Z,41.89
2023-04-28T08:11:06.981Z,42.56
2023-04-28T08:12:06.954Z,42.95
2023-04-28T08:13:06.977Z,42.31
2023-04-28T08:14:06.964Z,43.25
2023-04-28T08:15:06.980Z,42.62
2023-04-28T08:16:06.994Z,42.51
2023-04-28T08:17:06.940Z,41.79
2023-04-28T08:18:07.326Z,40.87
2023-04-28T08:19:06.967Z,40.62
2023-04-28T08:20:06.954Z,37.88
2023-04-28T08:21:06.906Z,27.35
2023-04-28T08:22:06.912Z,26.81
2023-04-28T08:23:07.305Z,24.54
2023-04-28T08:24:06.917Z,25.19
2023-04-28T08:25:06.935Z,23.00
2023-04-28T08:26:06.882Z,23.44
2023-04-28T08:27:06.876Z,24.45
2023-04-28T08:28:06.900Z,23.66
2023-04-28T08:29:06.897Z,22.89
2023-04-28T08:30:06.852Z,25.51
2023-04-28T08:31:06.880Z,27.59
2023-04-28T08:32:06.845Z,29.22
2023-04-28T08:33:07.719Z,31.34
2023-04-28T08:34:06.851Z,32.97
2023-04-28T08:35:06.808Z,33.51
2023-04-28T08:36:06.871Z,32.87
2023-04-28T08:37:06.827Z,29.47
2023-04-28T08:38:07.310Z,27.56
2023-04-28T08:39:06.787Z,28.05
2023-04-28T08:40:06.796Z,30.79
2023-04-28T08:41:06.761Z,30.32
2023-04-28T08:42:06.789Z,31.77
2023-04-28T08:43:06.789Z,31.63
2023-04-28T08:44:06.747Z,32.04
2023-04-28T08:45:06.739Z,31.71
2023-04-28T08:46:06.766Z,31.21
2023-04-28T08:47:06.753Z,32.58
2023-04-28T08:48:06.763Z,35.90
2023-04-28T08:49:06.779Z,38.17
2023-04-28T08:50:06.715Z,40.37
2023-04-28T08:51:06.732Z,43.14
2023-04-28T08:52:06.716Z,42.34
2023-04-28T08:53:06.722Z,42.49
2023-04-28T08:55:06.710Z,45.85
2023-04-28T08:56:06.716Z,46.49
2023-04-28T08:57:06.679Z,48.54
2023-04-28T08:58:06.739Z,28.47
2023-04-28T08:59:06.666Z,14.97
2023-04-28T09:00:06.675Z,10.72
2023-04-28T09:01:06.803Z,7.84
2023-04-28T09:02:06.670Z,6.63
2023-04-28T09:03:06.687Z,5.93
2023-04-28T09:04:06.792Z,5.07
2023-04-28T09:05:06.766Z,4.06
2023-04-28T09:06:06.627Z,3.92
2023-04-28T09:07:06.610Z,3.45
2023-04-28T09:08:06.590Z,3.20
2023-04-28T09:09:06.572Z,3.09
2023-04-28T09:10:06.596Z,3.13
2023-04-28T09:11:06.584Z,3.00
2023-04-28T09:12:06.575Z,2.92
2023-04-28T09:13:06.814Z,2.81
2023-04-28T09:14:06.568Z,2.92
2023-04-28T09:15:06.548Z,2.81
2023-04-28T09:16:06.572Z,2.74
2023-04-28T09:17:06.567Z,2.64
2023-04-28T09:18:06.887Z,2.62
2023-04-28T09:19:06.509Z,2.66
2023-04-28T09:20:06.535Z,2.75
2023-04-28T09:21:06.535Z,2.64
2023-04-28T09:22:24.028Z,2.66
2023-04-28T09:23:07.504Z,2.67
2023-04-28T09:24:06.560Z,2.59
2023-04-28T09:25:06.514Z,2.52
2023-04-28T09:26:06.566Z,2.76
2023-04-28T09:27:06.472Z,4.00
2023-04-28T09:28:06.827Z,6.17
2023-04-28T09:29:06.490Z,7.75
2023-04-28T09:30:06.467Z,10.27
2023-04-28T09:31:06.601Z,11.95
2023-04-28T09:32:06.537Z,12.40
2023-04-28T09:33:08.181Z,13.60
2023-04-28T09:34:06.498Z,14.02
2023-04-28T09:35:06.558Z,14.85
2023-04-28T09:36:06.511Z,15.04
2023-04-28T09:37:06.505Z,15.35
2023-04-28T09:38:06.836Z,16.95
2023-04-28T09:39:06.843Z,18.75
2023-04-28T09:40:06.470Z,19.76
2023-04-28T09:41:06.491Z,20.89
2023-04-28T09:42:06.436Z,22.37
2023-04-28T09:43:18.720Z,23.28
2023-04-28T09:44:07.458Z,23.34
2023-04-28T09:45:06.447Z,23.36
2023-04-28T09:46:06.485Z,23.53
2023-04-28T09:47:06.457Z,24.31
2023-04-28T09:48:06.886Z,24.66
2023-04-28T09:49:06.451Z,25.21
2023-04-28T09:50:06.635Z,25.81
2023-04-28T09:51:06.401Z,27.26
2023-04-28T09:52:06.390Z,28.86
2023-04-28T09:53:06.397Z,30.33
2023-04-28T09:54:06.379Z,29.11
2023-04-28T09:55:06.361Z,27.57
2023-04-28T09:56:06.409Z,27.06
2023-04-28T09:57:06.733Z,28.31
2023-04-28T09:58:06.821Z,29.44
2023-04-28T09:59:06.822Z,30.90
2023-04-28T10:00:06.761Z,29.56
2023-04-28T10:01:06.584Z,28.93
2023-04-28T10:02:22.521Z,29.18
2023-04-28T10:03:07.665Z,29.25
2023-04-28T10:04:06.797Z,27.53
2023-04-28T10:05:06.898Z,26.38
2023-04-28T10:06:06.506Z,26.48
2023-04-28T10:07:06.509Z,26.40
2023-04-28T10:08:06.553Z,26.04
2023-04-28T10:09:06.513Z,26.12
2023-04-28T10:10:06.475Z,25.60
2023-04-28T10:11:06.517Z,24.83
2023-04-28T10:12:06.468Z,25.18
2023-04-28T10:13:06.463Z,23.96
2023-04-28T10:14:06.553Z,24.70
2023-04-28T10:15:07.332Z,23.48
2023-04-28T10:16:06.473Z,24.13
2023-04-28T10:17:06.522Z,24.52
2023-04-28T10:18:06.612Z,21.26
2023-04-28T10:19:06.437Z,24.56
2023-04-28T10:20:06.482Z,26.97
2023-04-28T10:21:06.469Z,23.80
2023-04-28T10:22:06.476Z,22.38
2023-04-28T10:23:06.408Z,20.56
2023-04-28T10:24:06.865Z,19.04
2023-04-28T10:25:06.407Z,18.87
2023-04-28T10:26:06.417Z,20.60
2023-04-28T10:27:07.358Z,16.91
2023-04-28T10:28:06.450Z,16.67
2023-04-28T10:29:06.843Z,19.52
2023-04-28T10:30:10.520Z,19.05
2023-04-28T10:31:07.476Z,19.12
2023-04-28T10:32:06.467Z,19.12
2023-04-28T10:33:06.576Z,18.92
2023-04-28T10:34:06.457Z,17.94
2023-04-28T10:35:06.498Z,16.96
2023-04-28T10:36:07.348Z,16.90
2023-04-28T10:37:06.466Z,16.19
2023-04-28T10:38:06.500Z,15.69
2023-04-28T10:39:06.472Z,15.13
2023-04-28T10:40:08.275Z,15.26
2023-04-28T10:41:06.426Z,15.26
2023-04-28T10:42:06.461Z,15.47
2023-04-28T10:43:06.430Z,14.21
2023-04-28T10:44:06.419Z,13.64
2023-04-28T10:45:06.438Z,13.15
2023-04-28T10:46:06.581Z,11.91
2023-04-28T10:47:06.440Z,9.71
2023-04-28T10:48:06.462Z,10.21
2023-04-28T10:49:06.399Z,10.29
2023-04-28T10:50:06.423Z,11.83
2023-04-28T10:51:06.374Z,12.46
2023-04-28T10:52:06.392Z,12.49
2023-04-28T10:53:06.450Z,12.84
2023-04-28T10:54:06.452Z,13.42
2023-04-28T10:55:19.465Z,13.31
2023-04-28T10:56:07.516Z,13.32
2023-04-28T10:57:06.461Z,13.23
2023-04-28T10:58:06.433Z,13.39
2023-04-28T10:59:06.484Z,13.58
2023-04-28T11:00:07.387Z,12.53
2023-04-28T11:01:06.412Z,12.84
2023-04-28T11:02:06.520Z,13.64
2023-04-28T11:03:06.562Z,13.99
2023-04-28T11:04:06.634Z,12.93
2023-04-28T11:05:06.607Z,12.63
2023-04-28T11:06:06.404Z,12.64
2023-04-28T11:07:06.411Z,12.76
2023-04-28T11:08:07.415Z,12.62
2023-04-28T11:09:06.864Z,13.72
2023-04-28T11:10:06.443Z,13.27
2023-04-28T11:11:06.468Z,13.14
2023-04-28T11:12:06.446Z,13.94
2023-04-28T11:13:06.484Z,12.51
2023-04-28T11:14:07.361Z,11.23
2023-04-28T11:15:06.562Z,11.31
2023-04-28T11:16:06.645Z,11.79
2023-04-28T11:17:06.680Z,11.11
2023-04-28T11:18:06.696Z,11.76
2023-04-28T11:19:06.904Z,11.73
2023-04-28T11:20:06.718Z,10.79
2023-04-28T11:21:06.774Z,12.22
2023-04-28T11:22:06.803Z,11.90
2023-04-28T11:23:06.841Z,12.38
2023-04-28T11:24:07.384Z,12.11
2023-04-28T11:25:06.961Z,11.99
2023-04-28T11:26:06.978Z,11.26
2023-04-28T11:27:06.969Z,11.93
2023-04-28T11:28:07.015Z,11.07
2023-04-28T11:29:07.035Z,11.47
2023-04-28T11:30:07.086Z,11.49
2023-04-28T11:31:07.101Z,10.74
2023-04-28T11:32:07.251Z,10.75
2023-04-28T11:33:07.195Z,12.00
2023-04-28T11:34:07.213Z,11.73
2023-04-28T11:35:07.240Z,12.52
2023-04-28T11:36:07.279Z,14.06
2023-04-28T11:37:07.311Z,13.63
2023-04-28T11:38:07.328Z,14.09
2023-04-28T11:39:07.379Z,12.50
2023-04-28T11:40:07.418Z,14.19
2023-04-28T11:41:07.438Z,14.01
2023-04-28T11:42:07.510Z,15.12
2023-04-28T11:43:07.561Z,14.80
2023-04-28T11:44:07.572Z,17.62
2023-04-28T11:45:07.620Z,41.42
2023-04-28T11:46:07.750Z,36.73
2023-04-28T11:47:07.691Z,28.81
2023-04-28T11:48:07.825Z,27.49
2023-04-28T11:49:07.789Z,26.82
2023-04-28T11:50:07.827Z,25.14
2023-04-28T11:51:07.850Z,25.17
2023-04-28T11:52:07.911Z,25.58
2023-04-28T11:53:07.946Z,27.47
2023-04-28T11:54:07.993Z,28.79
2023-04-28T11:55:08.029Z,29.99
2023-04-28T11:56:08.145Z,30.37
2023-04-28T11:57:08.090Z,31.54
2023-04-28T11:58:08.135Z,31.50
2023-04-28T11:59:08.192Z,31.42
2023-04-28T12:00:08.211Z,31.11
2023-04-28T12:01:08.513Z,30.84
2023-04-28T12:02:08.305Z,30.88
2023-04-28T12:03:08.457Z,30.18
2023-04-28T12:04:08.515Z,28.66
2023-04-28T12:05:08.432Z,29.14
2023-04-28T12:06:08.436Z,29.73
2023-04-28T12:07:08.541Z,28.76
2023-04-28T12:08:08.528Z,26.99
2023-04-28T12:09:08.577Z,25.88
2023-04-28T12:10:08.664Z,24.90
2023-04-28T12:11:08.649Z,23.60
2023-04-28T12:12:08.706Z,22.80
2023-04-28T12:13:08.743Z,21.72
2023-04-28T12:14:08.771Z,21.39
2023-04-28T12:15:08.788Z,20.44
2023-04-28T12:16:08.857Z,19.51
2023-04-28T12:17:08.870Z,19.28
2023-04-28T12:18:08.924Z,17.95
2023-04-28T12:19:08.926Z,17.22
2023-04-28T12:20:08.952Z,16.83
2023-04-28T12:21:08.998Z,16.40
2023-04-28T12:22:09.065Z,16.23
2023-04-28T12:23:09.092Z,15.07
2023-04-28T12:24:09.101Z,14.59
2023-04-28T12:25:09.133Z,13.49
2023-04-28T12:26:09.183Z,13.51
2023-04-28T12:27:09.197Z,12.94
2023-04-28T12:28:09.242Z,12.59
2023-04-28T12:29:09.271Z,12.16
2023-04-28T12:30:09.300Z,11.84
2023-04-28T12:31:09.343Z,11.50
2023-04-28T12:32:09.349Z,11.55
2023-04-28T12:33:09.409Z,11.53
2023-04-28T12:34:09.426Z,11.08
2023-04-28T12:35:09.444Z,11.14
2023-04-28T12:36:09.531Z,10.79
2023-04-28T12:37:09.495Z,11.01
2023-04-28T12:38:09.523Z,11.22
2023-04-28T12:39:09.558Z,11.66
2023-04-28T12:40:09.553Z,11.22
2023-04-28T12:41:09.586Z,11.24
2023-04-28T12:42:09.606Z,11.14
2023-04-28T12:43:09.669Z,11.34
2023-04-28T12:44:09.684Z,11.16
2023-04-28T12:45:09.705Z,10.78
2023-04-28T12:46:09.763Z,10.43
2023-04-28T12:47:09.761Z,10.60
2023-04-28T12:48:09.870Z,10.20
2023-04-28T12:49:09.814Z,10.25
2023-04-28T12:50:09.846Z,10.10
2023-04-28T12:51:09.868Z,10.11
2023-04-28T12:52:09.891Z,10.11
2023-04-28T12:53:09.910Z,10.22
2023-04-28T12:54:10.425Z,10.29
2023-04-28T12:55:09.959Z,10.12
2023-04-28T12:56:10.091Z,10.30
2023-04-28T12:57:10.040Z,10.13
2023-04-28T12:58:10.060Z,9.94
2023-04-28T12:59:10.085Z,9.44